Time;durP1;ratioP1;P1;durP2;ratioP2;P2;SDS_P1;SDS_P2;PMS_P1;PMS_P2;Temp;Humidity;BMP_temperature;BMP_pressure;BME280_temperature;BME280_humidity;BME280_pressure;Samples;Min_cycle;Max_cycle;Signal;HPM_P1;HPM_P2
2023/05/02 00:02:17;;;;;;;3.30;3.10;;;;;;;;;;5070787;28;20463;-81
2023/05/02 00:04:43;;;;;;;3.20;2.90;;;;;;;;;;5071018;28;20376;-81
2023/05/02 00:07:10;;;;;;;3.22;3.03;;;;;;;;;;5069526;28;20392;-81
2023/05/02 00:09:36;;;;;;;3.63;3.42;;;;;;;;;;5070757;28;20380;-82
2023/05/02 00:12:02;;;;;;;4.07;3.78;;;;;;;;;;5070453;28;20419;-82
2023/05/02 00:14:28;;;;;;;3.40;3.20;;;;;;;;;;5070888;28;20374;-81
2023/05/02 00:16:55;;;;;;;3.55;3.35;;;;;;;;;;5070688;28;20368;-82
2023/05/02 00:19:21;;;;;;;3.40;3.20;;;;;;;;;;5070898;28;20425;-81
2023/05/02 00:21:48;;;;;;;4.07;3.77;;;;;;;;;;5070582;28;20454;-82
2023/05/02 00:24:14;;;;;;;3.55;3.35;;;;;;;;;;5070727;28;20388;-81
2023/05/02 00:26:40;;;;;;;3.72;3.40;;;;;;;;;;5070558;28;20388;-81
2023/05/02 00:29:06;;;;;;;3.92;3.20;;;;;;;;;;5070761;28;20376;-82
2023/05/02 00:31:32;;;;;;;3.22;3.00;;;;;;;;;;5073299;28;20879;-81
2023/05/02 00:33:58;;;;;;;3.50;3.20;;;;;;;;;;5066698;28;20418;-82
2023/05/02 00:36:26;;;;;;;4.30;3.60;;;;;;;;;;5071181;28;20391;-82
2023/05/02 00:38:52;;;;;;;4.73;3.17;;;;;;;;;;5072623;28;20434;-81
2023/05/02 00:41:18;;;;;;;3.80;3.50;;;;;;;;;;5069443;28;20387;-81
2023/05/02 00:43:44;;;;;;;4.00;3.70;;;;;;;;;;5068299;28;20507;-82
2023/05/02 00:46:11;;;;;;;5.70;4.57;;;;;;;;;;5069228;28;20892;-82
2023/05/02 00:48:37;;;;;;;4.32;4.00;;;;;;;;;;5070422;28;20982;-82
2023/05/02 00:51:04;;;;;;;4.03;3.73;;;;;;;;;;5070481;28;20554;-82
2023/05/02 00:53:31;;;;;;;3.95;3.60;;;;;;;;;;5070162;28;20769;-82
2023/05/02 00:56:00;;;;;;;4.40;4.10;;;;;;;;;;5070358;28;20456;-82
2023/05/02 00:58:26;;;;;;;3.40;3.20;;;;;;;;;;5071970;28;20379;-82
2023/05/02 01:01:06;;;;;;;4.57;4.10;;;;;;;;;;5074099;28;20395;-82
2023/05/02 01:03:41;;;;;;;4.15;3.85;;;;;;;;;;5073801;28;20390;-82
2023/05/02 01:06:16;;;;;;;4.78;4.47;;;;;;;;;;5073943;28;20384;-82
2023/05/02 01:08:47;;;;;;;4.40;4.10;;;;;;;;;;5063914;28;20388;-82
2023/05/02 01:11:20;;;;;;;5.28;4.90;;;;;;;;;;5073876;28;20375;-82
2023/05/02 01:13:46;;;;;;;5.40;5.00;;;;;;;;;;5073718;28;20411;-82
2023/05/02 01:16:14;;;;;;;4.97;4.57;;;;;;;;;;5073722;28;20383;-82
2023/05/02 01:18:41;;;;;;;4.70;4.20;;;;;;;;;;5073750;28;20371;-82
2023/05/02 01:21:08;;;;;;;4.75;4.30;;;;;;;;;;5067284;28;20786;-82
2023/05/02 01:24:00;;;;;;;4.80;4.40;;;;;;;;;;5073581;28;20383;-82
2023/05/02 01:26:29;;;;;;;4.45;4.15;;;;;;;;;;5073527;28;20379;-82
2023/05/02 01:29:02;;;;;;;4.38;4.07;;;;;;;;;;5073527;28;20410;-82
2023/05/02 01:31:30;;;;;;;5.90;4.43;;;;;;;;;;5073321;28;20455;-82
2023/05/02 01:33:58;;;;;;;4.82;4.43;;;;;;;;;;5080871;28;20456;-82
2023/05/02 01:36:26;;;;;;;4.38;4.07;;;;;;;;;;5074402;28;20376;-82
2023/05/02 01:38:54;;;;;;;4.10;3.80;;;;;;;;;;5075053;28;20391;-82
2023/05/02 01:41:21;;;;;;;3.90;3.60;;;;;;;;;;5073090;28;20368;-82
2023/05/02 01:43:47;;;;;;;3.72;3.42;;;;;;;;;;5069526;28;20418;-81
2023/05/02 01:46:14;;;;;;;3.92;3.63;;;;;;;;;;5073363;28;20437;-82
2023/05/02 01:48:41;;;;;;;3.28;3.08;;;;;;;;;;5073200;28;20383;-82
2023/05/02 01:51:07;;;;;;;4.03;3.45;;;;;;;;;;5073078;28;20376;-82
2023/05/02 01:53:35;;;;;;;3.75;3.45;;;;;;;;;;5069748;28;20478;-82
2023/05/02 01:56:02;;;;;;;3.80;3.50;;;;;;;;;;5073182;28;20459;-82
2023/05/02 01:58:30;;;;;;;3.45;3.22;;;;;;;;;;5072870;28;20372;-82
2023/05/02 02:00:57;;;;;;;3.55;3.35;;;;;;;;;;5071211;28;20452;-82
2023/05/02 02:03:23;;;;;;;3.75;3.47;;;;;;;;;;5072910;28;20734;-82
2023/05/02 02:05:51;;;;;;;3.50;3.30;;;;;;;;;;5072915;28;20375;-82
2023/05/02 02:08:18;;;;;;;3.95;3.58;;;;;;;;;;5072782;28;20429;-82
2023/05/02 02:10:45;;;;;;;4.15;3.72;;;;;;;;;;5071897;28;20382;-82
2023/05/02 02:13:19;;;;;;;4.47;4.18;;;;;;;;;;5072425;28;20408;-82
2023/05/02 02:15:50;;;;;;;4.30;3.90;;;;;;;;;;5072687;28;20384;-82
2023/05/02 02:18:21;;;;;;;4.30;4.00;;;;;;;;;;5072476;28;20371;-82
2023/05/02 02:20:47;;;;;;;3.92;3.63;;;;;;;;;;5072711;28;21069;-82
2023/05/02 02:23:14;;;;;;;4.30;3.90;;;;;;;;;;5064734;28;20492;-82
2023/05/02 02:25:41;;;;;;;4.60;4.20;;;;;;;;;;5066170;28;20966;-82
2023/05/02 02:28:07;;;;;;;4.30;4.00;;;;;;;;;;5069079;28;20401;-82
2023/05/02 02:30:33;;;;;;;4.38;4.00;;;;;;;;;;5071498;28;20855;-82
2023/05/02 02:32:59;;;;;;;4.65;4.25;;;;;;;;;;5072351;28;20408;-81
2023/05/02 02:35:33;;;;;;;4.77;4.40;;;;;;;;;;5084141;28;20379;-82
2023/05/02 02:38:11;;;;;;;4.50;4.10;;;;;;;;;;5080249;28;20374;-82
2023/05/02 02:40:43;;;;;;;4.80;4.40;;;;;;;;;;5079466;28;20739;-82
2023/05/02 02:43:13;;;;;;;4.63;4.28;;;;;;;;;;5071463;28;20408;-82
2023/05/02 02:46:03;;;;;;;4.20;3.90;;;;;;;;;;5074189;28;20388;-82
2023/05/02 02:48:43;;;;;;;5.15;3.90;;;;;;;;;;5073813;28;20386;-82
2023/05/02 02:51:12;;;;;;;4.50;4.20;;;;;;;;;;5072009;28;20441;-82
2023/05/02 02:53:46;;;;;;;4.43;4.13;;;;;;;;;;5071950;28;20404;-82
2023/05/02 02:56:14;;;;;;;5.15;4.72;;;;;;;;;;5071976;28;20379;-82
2023/05/02 02:58:54;;;;;;;5.30;4.90;;;;;;;;;;5071921;28;20453;-82
2023/05/02 03:01:22;;;;;;;5.32;4.93;;;;;;;;;;5071927;28;20452;-82
2023/05/02 03:03:49;;;;;;;4.73;4.33;;;;;;;;;;5071839;28;20887;-82
2023/05/02 03:06:15;;;;;;;4.43;4.05;;;;;;;;;;5071722;28;20398;-82
2023/05/02 03:08:42;;;;;;;4.00;3.70;;;;;;;;;;5072173;28;20371;-82
2023/05/02 03:11:08;;;;;;;4.80;4.15;;;;;;;;;;5071662;28;20403;-82
2023/05/02 03:13:35;;;;;;;4.43;3.97;;;;;;;;;;5071468;28;20479;-82
2023/05/02 03:16:01;;;;;;;4.50;4.10;;;;;;;;;;5071774;28;20372;-81
2023/05/02 03:18:27;;;;;;;5.10;4.80;;;;;;;;;;5071634;28;20386;-82
2023/05/02 03:20:53;;;;;;;5.00;4.60;;;;;;;;;;5070158;28;20427;-82
2023/05/02 03:23:19;;;;;;;5.05;4.55;;;;;;;;;;5071389;28;20388;-82
2023/05/02 03:25:45;;;;;;;5.20;4.80;;;;;;;;;;5067171;28;20390;-82
2023/05/02 03:28:11;;;;;;;5.47;5.07;;;;;;;;;;5071598;28;20764;-82
2023/05/02 03:30:39;;;;;;;6.35;5.75;;;;;;;;;;5071344;28;20389;-82
2023/05/02 03:33:07;;;;;;;5.90;5.50;;;;;;;;;;5071371;28;20486;-82
2023/05/02 03:35:33;;;;;;;7.20;6.70;;;;;;;;;;5070868;28;20406;-81
2023/05/02 03:38:00;;;;;;;7.97;7.38;;;;;;;;;;5070424;28;20399;-82
2023/05/02 03:40:27;;;;;;;9.10;8.50;;;;;;;;;;5070968;28;20379;-81
2023/05/02 03:42:53;;;;;;;8.23;7.63;;;;;;;;;;5070779;28;20412;-81
2023/05/02 03:45:19;;;;;;;9.25;8.65;;;;;;;;;;5071060;28;20383;-81
2023/05/02 03:47:45;;;;;;;9.27;8.68;;;;;;;;;;5060502;28;20963;-81
2023/05/02 03:50:11;;;;;;;8.30;7.80;;;;;;;;;;5071254;28;20387;-82
2023/05/02 03:52:37;;;;;;;8.32;7.68;;;;;;;;;;5070895;28;20411;-81
2023/05/02 03:55:04;;;;;;;8.10;7.60;;;;;;;;;;5071227;28;20380;-81
2023/05/02 03:57:30;;;;;;;7.28;6.78;;;;;;;;;;5070966;28;20378;-81
2023/05/02 03:59:57;;;;;;;7.68;7.18;;;;;;;;;;5071148;28;20714;-81
2023/05/02 04:02:24;;;;;;;7.43;6.93;;;;;;;;;;5070975;28;20386;-81
2023/05/02 04:04:50;;;;;;;7.60;7.10;;;;;;;;;;5070561;28;20860;-81
2023/05/02 04:07:18;;;;;;;7.30;6.75;;;;;;;;;;5065402;28;20394;-81
2023/05/02 04:09:44;;;;;;;7.10;6.65;;;;;;;;;;5067858;28;20864;-81
2023/05/02 04:12:10;;;;;;;6.45;6.05;;;;;;;;;;5060905;28;20410;-81
2023/05/02 04:14:36;;;;;;;6.70;6.20;;;;;;;;;;5057634;28;20476;-81
2023/05/02 04:17:02;;;;;;;7.20;6.60;;;;;;;;;;5062247;28;20457;-81
2023/05/02 04:19:29;;;;;;;6.60;6.10;;;;;;;;;;5061098;28;20454;-81
2023/05/02 04:21:55;;;;;;;6.70;6.28;;;;;;;;;;5069624;28;20375;-81
2023/05/02 04:24:21;;;;;;;6.90;6.30;;;;;;;;;;5069921;28;20398;-81
2023/05/02 04:26:47;;;;;;;6.72;6.22;;;;;;;;;;5069824;28;20376;-81
2023/05/02 04:29:14;;;;;;;7.60;7.00;;;;;;;;;;5069476;28;20797;-82
2023/05/02 04:31:40;;;;;;;6.93;6.45;;;;;;;;;;5061064;28;20383;-82
2023/05/02 04:34:06;;;;;;;6.82;6.28;;;;;;;;;;5070438;28;20933;-82
2023/05/02 04:36:33;;;;;;;7.38;6.75;;;;;;;;;;5071208;28;20378;-82
2023/05/02 04:38:59;;;;;;;7.07;6.57;;;;;;;;;;5074068;28;20474;-82
2023/05/02 04:41:25;;;;;;;6.60;6.10;;;;;;;;;;5078088;28;20923;-83
2023/05/02 04:43:51;;;;;;;6.70;6.20;;;;;;;;;;5070153;28;20418;-82
2023/05/02 04:46:17;;;;;;;6.50;6.00;;;;;;;;;;5073092;28;20435;-83
2023/05/02 04:48:43;;;;;;;7.13;6.60;;;;;;;;;;5070364;28;20380;-81
2023/05/02 04:51:09;;;;;;;6.85;6.45;;;;;;;;;;5066473;28;20384;-81
2023/05/02 04:53:36;;;;;;;6.60;6.15;;;;;;;;;;5057750;28;21159;-81
2023/05/02 04:56:02;;;;;;;7.40;6.90;;;;;;;;;;5061548;28;20387;-81
2023/05/02 04:58:29;;;;;;;7.22;6.72;;;;;;;;;;5068860;28;20422;-81
2023/05/02 05:00:55;;;;;;;7.50;6.80;;;;;;;;;;5068906;28;20389;-82
2023/05/02 05:03:21;;;;;;;7.15;6.65;;;;;;;;;;5071755;28;20753;-82
2023/05/02 05:05:47;;;;;;;7.50;6.90;;;;;;;;;;5067980;28;20398;-82
2023/05/02 05:08:13;;;;;;;7.60;7.00;;;;;;;;;;5066722;28;20407;-82
2023/05/02 05:10:39;;;;;;;7.60;7.10;;;;;;;;;;5070702;28;20379;-82
2023/05/02 05:13:05;;;;;;;7.18;6.72;;;;;;;;;;5054942;28;20894;-82
2023/05/02 05:15:31;;;;;;;7.53;7.03;;;;;;;;;;5065496;28;20376;-82
2023/05/02 05:17:57;;;;;;;8.48;7.68;;;;;;;;;;5070707;28;20853;-83
2023/05/02 05:20:23;;;;;;;7.72;7.22;;;;;;;;;;5063437;28;20384;-83
2023/05/02 05:22:49;;;;;;;8.13;7.47;;;;;;;;;;5073534;28;20372;-83
2023/05/02 05:25:15;;;;;;;7.68;7.18;;;;;;;;;;5069904;28;20740;-83
2023/05/02 05:27:41;;;;;;;8.27;7.67;;;;;;;;;;5073814;28;20384;-83
2023/05/02 05:30:08;;;;;;;7.82;7.32;;;;;;;;;;5069696;28;20389;-83
2023/05/02 05:32:34;;;;;;;10.57;9.77;;;;;;;;;;5064753;28;20420;-83
2023/05/02 05:35:01;;;;;;;10.00;9.30;;;;;;;;;;5064072;28;21259;-82
2023/05/02 05:37:26;;;;;;;13.57;12.55;;;;;;;;;;5073152;28;20426;-82
2023/05/02 05:39:52;;;;;;;8.48;7.88;;;;;;;;;;5066896;28;20904;-82
2023/05/02 05:42:18;;;;;;;8.15;7.55;;;;;;;;;;5086205;28;20381;-83
2023/05/02 05:44:44;;;;;;;8.32;7.78;;;;;;;;;;5076667;28;20886;-82
2023/05/02 05:47:11;;;;;;;9.80;9.10;;;;;;;;;;5069231;28;20390;-82
2023/05/02 05:49:37;;;;;;;9.05;8.25;;;;;;;;;;5070385;28;20395;-82
2023/05/02 05:52:03;;;;;;;8.40;7.90;;;;;;;;;;5078943;28;20414;-82
2023/05/02 05:54:29;;;;;;;9.10;8.50;;;;;;;;;;5072904;28;20390;-82
2023/05/02 05:56:55;;;;;;;10.25;9.43;;;;;;;;;;5073221;28;20383;-82
2023/05/02 05:59:21;;;;;;;9.48;8.88;;;;;;;;;;5072016;28;20383;-82
2023/05/02 06:01:47;;;;;;;10.10;9.38;;;;;;;;;;5062772;28;20391;-82
2023/05/02 06:04:13;;;;;;;10.75;10.05;;;;;;;;;;5073057;28;20429;-83
2023/05/02 06:06:39;;;;;;;9.80;9.20;;;;;;;;;;5070014;28;20788;-84
2023/05/02 06:09:05;;;;;;;9.95;9.30;;;;;;;;;;5073113;28;20382;-84
2023/05/02 06:11:31;;;;;;;19.20;17.38;;;;;;;;;;5065552;28;20791;-86
2023/05/02 06:13:57;;;;;;;11.38;10.57;;;;;;;;;;5070908;28;20423;-85
2023/05/02 06:16:23;;;;;;;11.45;10.55;;;;;;;;;;5072547;28;20812;-85
2023/05/02 06:18:53;;;;;;;10.35;9.65;;;;;;;;;;5072049;28;20442;-86
2023/05/02 06:21:19;;;;;;;10.30;9.57;;;;;;;;;;5071237;28;20462;-86
2023/05/02 06:23:45;;;;;;;10.10;9.50;;;;;;;;;;5072498;28;20421;-85
2023/05/02 06:26:11;;;;;;;10.25;9.55;;;;;;;;;;5072680;28;20458;-85
2023/05/02 06:28:37;;;;;;;10.67;9.97;;;;;;;;;;5072511;28;20450;-85
2023/05/02 06:31:04;;;;;;;11.05;10.25;;;;;;;;;;5072559;28;20375;-86
2023/05/02 06:33:31;;;;;;;11.05;10.25;;;;;;;;;;5069043;28;20915;-86
2023/05/02 06:35:57;;;;;;;11.50;10.70;;;;;;;;;;5071587;28;20922;-86
2023/05/02 06:38:23;;;;;;;11.87;11.03;;;;;;;;;;5065789;28;20383;-85
2023/05/02 06:40:50;;;;;;;10.75;9.98;;;;;;;;;;5071105;28;20372;-85
2023/05/02 06:43:16;;;;;;;11.77;10.98;;;;;;;;;;5081142;28;20425;-84
2023/05/02 06:45:42;;;;;;;13.73;12.63;;;;;;;;;;5074431;28;20384;-82
2023/05/02 06:48:08;;;;;;;10.93;10.23;;;;;;;;;;5069325;28;20375;-84
2023/05/02 06:50:35;;;;;;;11.18;10.27;;;;;;;;;;5059618;28;20409;-82
2023/05/02 06:53:01;;;;;;;10.55;9.85;;;;;;;;;;5061489;28;20449;-82
2023/05/02 06:55:27;;;;;;;11.05;10.35;;;;;;;;;;5060006;28;20473;-84
2023/05/02 06:57:54;;;;;;;12.07;11.10;;;;;;;;;;5068090;28;20865;-88
2023/05/02 07:00:20;;;;;;;11.10;10.25;;;;;;;;;;5071909;28;20527;-85
2023/05/02 07:02:47;;;;;;;10.40;9.70;;;;;;;;;;5068925;28;20474;-86
2023/05/02 07:05:14;;;;;;;11.38;10.57;;;;;;;;;;5071194;28;20388;-85
2023/05/02 07:07:41;;;;;;;12.43;11.25;;;;;;;;;;5071804;28;20384;-85
2023/05/02 07:10:07;;;;;;;12.00;11.10;;;;;;;;;;5071831;28;20384;-84
2023/05/02 07:12:33;;;;;;;18.97;17.30;;;;;;;;;;5070347;28;20419;-84
2023/05/02 07:14:59;;;;;;;120.25;107.40;;;;;;;;;;5068998;28;20379;-82
2023/05/02 07:17:25;;;;;;;18.58;17.05;;;;;;;;;;5071677;28;20383;-82
2023/05/02 07:19:51;;;;;;;13.50;12.50;;;;;;;;;;5071554;28;20918;-82
2023/05/02 07:22:17;;;;;;;12.55;11.65;;;;;;;;;;5071626;28;20745;-82
2023/05/02 07:24:43;;;;;;;12.25;11.45;;;;;;;;;;5062710;28;20385;-82
2023/05/02 07:27:10;;;;;;;12.82;11.82;;;;;;;;;;5070222;28;20372;-82
2023/05/02 07:29:36;;;;;;;51.67;46.33;;;;;;;;;;5071484;28;20441;-80
2023/05/02 07:32:02;;;;;;;16.40;15.10;;;;;;;;;;5071113;28;20415;-84
2023/05/02 07:34:29;;;;;;;21.80;20.03;;;;;;;;;;5071544;28;20367;-84
2023/05/02 07:36:55;;;;;;;14.25;13.18;;;;;;;;;;5071344;28;20449;-84
2023/05/02 07:39:21;;;;;;;13.30;12.20;;;;;;;;;;5071473;28;20583;-83
2023/05/02 07:41:47;;;;;;;11.90;11.10;;;;;;;;;;5070254;28;20422;-84
2023/05/02 07:44:13;;;;;;;10.90;10.18;;;;;;;;;;5070645;28;20443;-84
2023/05/02 07:46:39;;;;;;;11.00;10.20;;;;;;;;;;5072174;28;20788;-84
2023/05/02 07:49:05;;;;;;;11.57;10.68;;;;;;;;;;5070788;28;20387;-84
2023/05/02 07:51:31;;;;;;;10.43;9.60;;;;;;;;;;5069367;28;20444;-84
2023/05/02 07:53:58;;;;;;;11.00;10.30;;;;;;;;;;5070525;28;20754;-84
2023/05/02 07:56:24;;;;;;;10.37;9.57;;;;;;;;;;5071227;28;20872;-84
2023/05/02 07:58:50;;;;;;;12.50;11.50;;;;;;;;;;5071553;28;20497;-84
2023/05/02 08:01:17;;;;;;;15.48;14.40;;;;;;;;;;5073192;28;20483;-84
2023/05/02 08:03:43;;;;;;;12.80;11.90;;;;;;;;;;5071072;28;20467;-85
2023/05/02 08:06:09;;;;;;;13.07;12.18;;;;;;;;;;5071040;28;20376;-84
2023/05/02 08:08:35;;;;;;;11.85;10.85;;;;;;;;;;5070319;28;20437;-84
2023/05/02 08:11:01;;;;;;;11.68;10.88;;;;;;;;;;5070905;28;20472;-83
2023/05/02 08:13:27;;;;;;;10.88;10.07;;;;;;;;;;5070847;28;20414;-85
2023/05/02 08:15:57;;;;;;;10.87;10.13;;;;;;;;;;5066145;28;20452;-85
2023/05/02 08:18:25;;;;;;;10.18;9.43;;;;;;;;;;5067311;28;20477;-84
2023/05/02 08:20:51;;;;;;;10.80;10.10;;;;;;;;;;5069595;28;20372;-84
2023/05/02 08:23:18;;;;;;;10.55;9.75;;;;;;;;;;5071045;28;20433;-84
2023/05/02 08:25:44;;;;;;;11.20;10.18;;;;;;;;;;5070860;28;20380;-85
2023/05/02 08:28:10;;;;;;;10.82;10.02;;;;;;;;;;5070839;28;20391;-84
2023/05/02 08:30:36;;;;;;;10.40;9.63;;;;;;;;;;5070757;28;20391;-84
2023/05/02 08:33:02;;;;;;;10.48;9.77;;;;;;;;;;5064279;28;20478;-84
2023/05/02 08:35:31;;;;;;;10.25;9.55;;;;;;;;;;5066029;28;20433;-85
2023/05/02 08:37:57;;;;;;;10.25;9.45;;;;;;;;;;5070818;28;20384;-85
2023/05/02 08:40:25;;;;;;;10.48;9.75;;;;;;;;;;5070772;28;20433;-84
2023/05/02 08:42:51;;;;;;;9.57;8.98;;;;;;;;;;5069238;28;20403;-84
2023/05/02 08:45:18;;;;;;;9.20;8.60;;;;;;;;;;5070388;28;20469;-85
2023/05/02 08:47:45;;;;;;;10.17;9.30;;;;;;;;;;5081222;28;20388;-84
2023/05/02 08:50:11;;;;;;;10.20;9.23;;;;;;;;;;5070368;28;20376;-84
2023/05/02 08:52:37;;;;;;;9.48;8.80;;;;;;;;;;5079236;28;20896;-84
2023/05/02 08:55:05;;;;;;;10.38;9.63;;;;;;;;;;5070204;28;20392;-84
2023/05/02 08:57:31;;;;;;;9.82;9.15;;;;;;;;;;5070532;28;20368;-84
2023/05/02 08:59:58;;;;;;;9.30;8.53;;;;;;;;;;5070503;28;20391;-84
2023/05/02 09:02:27;;;;;;;9.07;8.48;;;;;;;;;;5070259;28;20475;-83
2023/05/02 09:04:55;;;;;;;9.32;8.60;;;;;;;;;;5070504;28;20407;-84
2023/05/02 09:07:21;;;;;;;10.00;9.30;;;;;;;;;;5064809;28;20850;-84
2023/05/02 09:09:47;;;;;;;9.27;8.48;;;;;;;;;;5070085;28;20885;-84
2023/05/02 09:12:13;;;;;;;8.85;8.25;;;;;;;;;;5070283;28;20443;-84
2023/05/02 09:14:39;;;;;;;9.18;8.52;;;;;;;;;;5070295;28;20372;-84
2023/05/02 09:17:05;;;;;;;8.77;8.13;;;;;;;;;;5070334;28;20383;-84
2023/05/02 09:19:31;;;;;;;8.38;7.78;;;;;;;;;;5072215;28;20759;-84
2023/05/02 09:22:00;;;;;;;8.77;8.23;;;;;;;;;;5073684;28;20459;-84
2023/05/02 09:24:26;;;;;;;8.60;7.88;;;;;;;;;;5073810;28;20452;-83
2023/05/02 09:27:03;;;;;;;9.63;9.00;;;;;;;;;;5073682;28;20891;-84
2023/05/02 09:29:34;;;;;;;11.05;10.20;;;;;;;;;;5073753;28;20386;-84
2023/05/02 09:32:00;;;;;;;10.83;10.03;;;;;;;;;;5070500;28;20429;-84
2023/05/02 09:34:26;;;;;;;10.82;9.93;;;;;;;;;;5062294;28;20379;-83
2023/05/02 09:36:56;;;;;;;10.15;9.45;;;;;;;;;;5073464;28;20796;-84
2023/05/02 09:39:23;;;;;;;11.02;10.23;;;;;;;;;;5073626;28;20387;-84
2023/05/02 09:41:49;;;;;;;10.98;10.07;;;;;;;;;;5073570;28;20393;-84
2023/05/02 09:44:20;;;;;;;9.60;8.90;;;;;;;;;;5068754;28;20885;-84
2023/05/02 09:46:50;;;;;;;9.00;8.35;;;;;;;;;;5072467;28;20463;-84
2023/05/02 09:49:20;;;;;;;9.88;9.18;;;;;;;;;;5073044;28;20486;-83
2023/05/02 09:51:47;;;;;;;10.32;9.48;;;;;;;;;;5081679;28;20400;-84
2023/05/02 09:54:13;;;;;;;9.00;8.38;;;;;;;;;;5072973;28;20738;-83
2023/05/02 09:56:57;;;;;;;11.10;10.15;;;;;;;;;;5073249;28;20425;-83
2023/05/02 09:59:23;;;;;;;9.75;9.05;;;;;;;;;;5073202;28;20383;-83
2023/05/02 10:01:59;;;;;;;9.80;9.10;;;;;;;;;;5073162;28;20445;-83
2023/05/02 10:04:26;;;;;;;9.63;8.80;;;;;;;;;;5073054;28;20883;-83
2023/05/02 10:06:53;;;;;;;9.90;9.20;;;;;;;;;;5071766;28;20939;-83
2023/05/02 10:09:19;;;;;;;9.57;8.90;;;;;;;;;;5072869;28;20379;-83
2023/05/02 10:11:45;;;;;;;9.48;8.88;;;;;;;;;;5071761;28;20390;-83
2023/05/02 10:14:12;;;;;;;9.00;8.40;;;;;;;;;;5072749;28;20483;-83
2023/05/02 10:16:42;;;;;;;8.82;8.23;;;;;;;;;;5082065;28;20773;-83
2023/05/02 10:19:12;;;;;;;9.40;8.70;;;;;;;;;;5082231;28;20376;-83
2023/05/02 10:21:39;;;;;;;8.57;7.97;;;;;;;;;;5065742;28;20474;-83
2023/05/02 10:24:05;;;;;;;8.60;8.00;;;;;;;;;;5070852;28;20408;-82
2023/05/02 10:26:34;;;;;;;8.73;8.13;;;;;;;;;;5065353;28;20387;-83
2023/05/02 10:29:00;;;;;;;8.80;8.02;;;;;;;;;;5064072;28;20938;-82
2023/05/02 10:31:27;;;;;;;7.70;7.20;;;;;;;;;;5070921;28;20856;-84
2023/05/02 10:33:54;;;;;;;7.50;6.90;;;;;;;;;;5069898;28;20415;-84
2023/05/02 10:36:21;;;;;;;8.13;7.53;;;;;;;;;;5081393;28;20881;-84
2023/05/02 10:38:48;;;;;;;7.30;6.70;;;;;;;;;;5083329;28;20372;-84
2023/05/02 10:41:15;;;;;;;7.45;6.95;;;;;;;;;;5078898;28;20412;-85
2023/05/02 10:43:45;;;;;;;7.68;7.05;;;;;;;;;;5071312;28;20911;-84
2023/05/02 10:46:30;;;;;;;7.18;6.57;;;;;;;;;;5069282;28;20392;-84
2023/05/02 10:49:08;;;;;;;7.22;6.68;;;;;;;;;;5070474;28;21895;-85
2023/05/02 10:51:35;;;;;;;7.03;6.53;;;;;;;;;;5064846;28;20388;-85
2023/05/02 10:54:19;;;;;;;6.80;6.30;;;;;;;;;;5072752;28;20396;-86
2023/05/02 10:56:57;;;;;;;6.63;6.13;;;;;;;;;;5066346;28;20863;-84
2023/05/02 10:59:27;;;;;;;7.18;6.60;;;;;;;;;;5068847;28;20428;-86
2023/05/02 11:01:53;;;;;;;8.35;7.70;;;;;;;;;;5071115;28;20380;-86
2023/05/02 11:04:19;;;;;;;8.57;7.97;;;;;;;;;;5070634;28;20395;-85
2023/05/02 11:07:00;;;;;;;8.60;7.90;;;;;;;;;;5079659;28;20381;-86
2023/05/02 11:09:28;;;;;;;6.40;6.00;;;;;;;;;;5071917;28;20379;-85
2023/05/02 11:11:56;;;;;;;6.60;6.20;;;;;;;;;;5084892;28;20503;-84
2023/05/02 11:14:25;;;;;;;4.65;4.25;;;;;;;;;;5072486;28;20537;-85
2023/05/02 11:16:57;;;;;;;2.50;2.30;;;;;;;;;;5080691;28;20380;-85
2023/05/02 11:19:27;;;;;;;2.70;2.50;;;;;;;;;;5078824;28;20372;-85
2023/05/02 11:21:53;;;;;;;3.60;3.00;;;;;;;;;;5066291;28;20462;-85
2023/05/02 11:24:41;;;;;;;2.80;2.60;;;;;;;;;;5071152;28;20380;-86
2023/05/02 11:27:25;;;;;;;2.60;2.40;;;;;;;;;;5076583;28;20376;-85
2023/05/02 11:29:52;;;;;;;3.55;3.25;;;;;;;;;;5061229;28;20379;-85
2023/05/02 11:32:18;;;;;;;4.82;4.43;;;;;;;;;;5070705;28;20412;-86
2023/05/02 11:34:44;;;;;;;5.82;5.38;;;;;;;;;;5070663;28;20459;-86
2023/05/02 11:37:12;;;;;;;7.30;6.80;;;;;;;;;;5073066;28;20374;-86
2023/05/02 11:39:38;;;;;;;7.70;7.10;;;;;;;;;;5070785;28;20880;-86
2023/05/02 11:42:04;;;;;;;6.90;6.50;;;;;;;;;;5070191;28;20805;-85
2023/05/02 11:44:30;;;;;;;6.30;5.90;;;;;;;;;;5064604;28;20407;-86
2023/05/02 11:46:56;;;;;;;4.70;4.40;;;;;;;;;;5071453;28;20396;-85
2023/05/02 11:49:22;;;;;;;3.20;3.00;;;;;;;;;;5074208;28;20389;-85
2023/05/02 11:51:48;;;;;;;2.67;2.47;;;;;;;;;;5077976;28;20386;-86
2023/05/02 11:54:18;;;;;;;3.40;3.10;;;;;;;;;;5070476;28;20406;-86
2023/05/02 11:56:45;;;;;;;4.32;3.78;;;;;;;;;;5070795;28;20372;-85
2023/05/02 11:59:11;;;;;;;3.60;3.40;;;;;;;;;;5069431;28;20899;-85
2023/05/02 12:01:47;;;;;;;3.30;2.58;;;;;;;;;;5070931;28;20467;-85
2023/05/02 12:04:13;;;;;;;3.05;2.85;;;;;;;;;;5070894;28;20740;-86
2023/05/02 12:06:39;;;;;;;3.42;3.22;;;;;;;;;;5071103;28;20381;-87
2023/05/02 12:09:09;;;;;;;3.67;3.47;;;;;;;;;;5070672;28;20376;-86
2023/05/02 12:11:37;;;;;;;3.30;3.00;;;;;;;;;;5071148;28;20452;-86
2023/05/02 12:14:03;;;;;;;4.00;3.80;;;;;;;;;;5070812;28;20465;-85
2023/05/02 12:16:29;;;;;;;3.85;3.60;;;;;;;;;;5069630;28;20432;-84
2023/05/02 12:18:58;;;;;;;3.78;3.42;;;;;;;;;;5070755;28;20376;-86
2023/05/02 12:21:24;;;;;;;4.32;4.00;;;;;;;;;;5069950;28;20378;-85
2023/05/02 12:23:50;;;;;;;4.00;3.70;;;;;;;;;;5057420;28;20388;-85
2023/05/02 12:26:21;;;;;;;4.35;4.05;;;;;;;;;;5070851;28;20459;-85
2023/05/02 12:28:51;;;;;;;3.80;3.60;;;;;;;;;;5070471;28;20372;-87
2023/05/02 12:31:17;;;;;;;3.30;3.10;;;;;;;;;;5070939;28;20391;-86
2023/05/02 12:33:43;;;;;;;3.42;3.22;;;;;;;;;;5070650;28;20403;-85
2023/05/02 12:36:10;;;;;;;3.90;3.60;;;;;;;;;;5063583;28;20372;-85
2023/05/02 12:38:36;;;;;;;3.33;3.13;;;;;;;;;;5070522;28;20372;-85
2023/05/02 12:41:02;;;;;;;3.70;3.50;;;;;;;;;;5070854;28;20461;-84
2023/05/02 12:43:42;;;;;;;3.17;2.88;;;;;;;;;;5070696;28;20521;-83
2023/05/02 12:46:11;;;;;;;3.05;2.85;;;;;;;;;;5070788;28;20399;-84
2023/05/02 12:48:37;;;;;;;3.50;3.30;;;;;;;;;;5067430;28;20388;-83
2023/05/02 12:51:03;;;;;;;3.67;3.33;;;;;;;;;;5070107;28;20387;-83
2023/05/02 12:53:39;;;;;;;2.25;2.15;;;;;;;;;;5070873;28;20400;-83
2023/05/02 12:56:06;;;;;;;2.38;2.20;;;;;;;;;;5074416;28;20383;-84
2023/05/02 12:58:40;;;;;;;2.25;2.15;;;;;;;;;;5074235;28;20546;-83
2023/05/02 13:01:07;;;;;;;1.98;1.88;;;;;;;;;;5074406;28;20845;-85
2023/05/02 13:03:33;;;;;;;2.10;2.00;;;;;;;;;;5074198;28;20398;-87
2023/05/02 13:05:59;;;;;;;1.60;1.50;;;;;;;;;;5074211;28;20422;-86
2023/05/02 13:08:25;;;;;;;2.00;1.90;;;;;;;;;;5067425;28;20413;-89
2023/05/02 13:10:51;;;;;;;1.63;1.52;;;;;;;;;;5068582;28;20422;-87
2023/05/02 13:13:17;;;;;;;2.23;1.60;;;;;;;;;;5074164;28;20451;-88
2023/05/02 13:15:43;;;;;;;2.10;2.00;;;;;;;;;;5074095;28;20382;-90
2023/05/02 13:18:10;;;;;;;2.10;2.00;;;;;;;;;;5073710;28;20441;-88
2023/05/02 13:20:36;;;;;;;2.70;2.28;;;;;;;;;;5074093;28;20402;-87
2023/05/02 13:23:02;;;;;;;2.10;2.00;;;;;;;;;;5073953;28;20391;-89
2023/05/02 13:25:28;;;;;;;1.85;1.50;;;;;;;;;;5073941;28;20387;-87
2023/05/02 13:27:54;;;;;;;2.65;2.45;;;;;;;;;;5074185;28;20779;-91
2023/05/02 13:30:20;;;;;;;2.65;2.45;;;;;;;;;;5071693;28;20387;-91
2023/05/02 13:32:46;;;;;;;3.20;2.90;;;;;;;;;;5072761;28;20422;-89
2023/05/02 13:35:14;;;;;;;3.10;2.90;;;;;;;;;;5072392;28;20380;-89
2023/05/02 13:37:40;;;;;;;2.70;2.50;;;;;;;;;;5073822;28;20467;-90
2023/05/02 13:40:06;;;;;;;2.87;2.57;;;;;;;;;;5070673;28;20470;-91
2023/05/02 13:42:32;;;;;;;3.30;3.00;;;;;;;;;;5072619;28;20388;-90
2023/05/02 13:44:59;;;;;;;3.13;2.60;;;;;;;;;;5071234;28;20379;-89
2023/05/02 13:47:25;;;;;;;2.88;2.67;;;;;;;;;;5073592;28;20855;-89
2023/05/02 13:49:51;;;;;;;2.95;2.75;;;;;;;;;;5073206;28;20433;-90
2023/05/02 13:52:17;;;;;;;5.27;3.20;;;;;;;;;;5073277;28;20460;-89
2023/05/02 13:54:43;;;;;;;3.75;3.35;;;;;;;;;;5073369;28;20380;-88
2023/05/02 13:57:09;;;;;;;3.20;3.00;;;;;;;;;;5073389;28;20764;-88
2023/05/02 13:59:35;;;;;;;3.90;3.50;;;;;;;;;;5072895;28;20806;-89
2023/05/02 14:02:01;;;;;;;3.30;3.00;;;;;;;;;;5073162;28;20414;-88
2023/05/02 14:04:27;;;;;;;3.45;3.15;;;;;;;;;;5073125;28;20419;-89
2023/05/02 14:06:53;;;;;;;3.50;3.20;;;;;;;;;;5072230;28;20907;-88
2023/05/02 14:09:19;;;;;;;3.40;3.20;;;;;;;;;;5072778;28;20380;-89
2023/05/02 14:11:47;;;;;;;3.40;3.10;;;;;;;;;;5071789;28;20410;-88
2023/05/02 14:14:13;;;;;;;3.57;3.37;;;;;;;;;;5071567;28;20912;-88
2023/05/02 14:16:39;;;;;;;3.70;3.40;;;;;;;;;;5072856;28;20402;-89
2023/05/02 14:19:05;;;;;;;3.65;3.42;;;;;;;;;;5072734;28;20399;-90
2023/05/02 14:21:31;;;;;;;4.00;3.30;;;;;;;;;;5072793;28;20404;-89
2023/05/02 14:23:57;;;;;;;3.23;3.00;;;;;;;;;;5072904;28;20411;-88
2023/05/02 14:26:23;;;;;;;3.63;3.33;;;;;;;;;;5071898;28;20430;-89
2023/05/02 14:28:49;;;;;;;3.22;3.00;;;;;;;;;;5058940;28;20414;-88
2023/05/02 14:31:15;;;;;;;4.40;4.00;;;;;;;;;;5072699;28;20470;-89
2023/05/02 14:33:41;;;;;;;4.00;3.70;;;;;;;;;;5072302;28;20817;-88
2023/05/02 14:36:07;;;;;;;3.80;3.50;;;;;;;;;;5072597;28;20413;-87
2023/05/02 14:38:33;;;;;;;4.13;3.83;;;;;;;;;;5061442;28;20452;-88
2023/05/02 14:41:01;;;;;;;5.28;4.78;;;;;;;;;;5072510;28;20416;-88